Time;durP1;ratioP1;P1;durP2;ratioP2;P2;SDS_P1;SDS_P2;PMS_P1;PMS_P2;Temp;Humidity;BMP_temperature;BMP_pressure;BME280_temperature;BME280_humidity;BME280_pressure;Samples;Min_cycle;Max_cycle;Signal;HPM_P1;HPM_P2
2021/08/11 00:01:29;;;;;;;22.70;7.75;;;14.80;92.50;;;;;;5054950;28;20032;-47
2021/08/11 00:03:55;;;;;;;8.77;6.80;;;14.80;92.50;;;;;;5054938;28;20021;-48
2021/08/11 00:06:21;;;;;;;8.35;6.38;;;14.70;92.50;;;;;;5054586;28;20033;-48
2021/08/11 00:08:47;;;;;;;11.20;6.90;;;14.70;92.60;;;;;;5054504;28;20429;-46
2021/08/11 00:11:14;;;;;;;10.35;7.20;;;14.80;92.20;;;;;;5055080;28;20021;-52
2021/08/11 00:13:39;;;;;;;13.05;8.20;;;14.70;92.10;;;;;;5054712;28;20037;-45
2021/08/11 00:16:05;;;;;;;8.85;6.88;;;14.70;92.20;;;;;;5054912;28;20139;-46
2021/08/11 00:18:31;;;;;;;8.85;6.20;;;14.60;92.10;;;;;;5054779;28;20492;-47
2021/08/11 00:20:57;;;;;;;8.60;5.85;;;14.50;92.20;;;;;;5054775;28;20410;-47
2021/08/11 00:23:25;;;;;;;11.57;5.82;;;14.40;92.20;;;;;;5054766;28;20061;-48
2021/08/11 00:25:54;;;;;;;8.30;6.03;;;14.40;92.30;;;;;;5054261;28;20057;-47
2021/08/11 00:28:21;;;;;;;9.32;6.25;;;14.40;92.40;;;;;;5054255;28;20028;-48
2021/08/11 00:30:47;;;;;;;9.88;6.05;;;14.30;92.40;;;;;;5052764;28;20467;-47
2021/08/11 00:33:12;;;;;;;8.98;6.07;;;14.30;92.50;;;;;;5053948;28;20120;-47
2021/08/11 00:35:38;;;;;;;10.15;6.57;;;14.30;92.60;;;;;;5053969;28;20071;-47
2021/08/11 00:38:04;;;;;;;9.25;6.30;;;14.30;92.70;;;;;;5053871;28;20025;-47
2021/08/11 00:40:31;;;;;;;13.82;6.55;;;14.30;92.70;;;;;;5054026;28;20021;-52
2021/08/11 00:42:57;;;;;;;11.43;6.63;;;14.30;92.60;;;;;;5053777;28;20048;-50
2021/08/11 00:45:23;;;;;;;11.05;8.45;;;14.20;92.60;;;;;;5053925;28;20468;-48
2021/08/11 00:47:51;;;;;;;9.70;6.50;;;14.20;92.60;;;;;;5052709;28;20025;-47
2021/08/11 00:50:18;;;;;;;10.32;6.45;;;14.20;92.70;;;;;;5053574;28;20035;-50
2021/08/11 00:52:43;;;;;;;9.30;6.60;;;14.20;92.80;;;;;;5053750;28;20020;-48
2021/08/11 00:55:10;;;;;;;14.60;7.63;;;14.20;92.80;;;;;;5052260;28;20079;-49
2021/08/11 00:57:37;;;;;;;16.20;6.60;;;14.20;92.80;;;;;;5053423;28;20024;-48
2021/08/11 01:00:04;;;;;;;11.40;7.00;;;14.20;92.90;;;;;;5053278;28;20025;-47
2021/08/11 01:02:30;;;;;;;11.57;6.88;;;14.20;92.90;;;;;;5053137;28;20033;-48
2021/08/11 01:04:58;;;;;;;8.82;6.70;;;14.20;92.90;;;;;;5053591;28;20036;-49
2021/08/11 01:07:27;;;;;;;8.70;6.25;;;14.20;92.90;;;;;;5053329;28;20412;-47
2021/08/11 01:09:53;;;;;;;8.32;6.82;;;14.20;92.80;;;;;;5053828;28;20108;-47
2021/08/11 01:12:25;;;;;;;9.73;6.90;;;14.20;92.70;;;;;;5051611;28;20025;-47
2021/08/11 01:14:54;;;;;;;12.40;6.43;;;14.20;92.70;;;;;;5053615;28;20342;-46
2021/08/11 01:17:21;;;;;;;11.87;6.70;;;14.20;92.70;;;;;;5053148;28;20035;-48
2021/08/11 01:19:47;;;;;;;9.73;6.95;;;14.20;92.60;;;;;;5053189;28;20067;-46
2021/08/11 01:22:26;;;;;;;11.93;7.38;;;14.10;92.60;;;;;;5053086;28;20483;-47
2021/08/11 01:25:10;;;;;;;9.23;6.90;;;14.20;92.60;;;;;;5052895;28;20043;-46
2021/08/11 01:27:40;;;;;;;10.60;6.63;;;14.20;92.50;;;;;;5052698;28;20528;-46
2021/08/11 01:30:34;;;;;;;11.15;6.68;;;14.10;92.40;;;;;;5052768;28;20098;-46
2021/08/11 01:32:59;;;;;;;11.73;8.00;;;14.10;92.50;;;;;;5052432;28;20058;-47
2021/08/11 01:35:33;;;;;;;10.82;5.85;;;14.10;92.60;;;;;;5053140;28;20029;-46
2021/08/11 01:38:01;;;;;;;13.45;6.00;;;14.10;92.60;;;;;;5052892;28;20090;-47
2021/08/11 01:40:30;;;;;;;8.18;5.85;;;14.10;92.60;;;;;;5052562;28;20029;-47
2021/08/11 01:42:59;;;;;;;9.70;6.32;;;14.10;92.60;;;;;;5052525;28;20033;-46
2021/08/11 01:45:30;;;;;;;13.50;7.03;;;14.10;92.70;;;;;;5052511;28;20338;-49
2021/08/11 01:47:58;;;;;;;11.57;6.97;;;14.00;92.60;;;;;;5052903;28;20457;-48
2021/08/11 01:50:26;;;;;;;10.32;7.10;;;14.10;92.70;;;;;;5052881;28;20017;-47
2021/08/11 01:52:54;;;;;;;9.73;6.88;;;14.10;92.80;;;;;;5052786;28;20029;-49
2021/08/11 01:55:20;;;;;;;11.98;7.45;;;14.00;92.80;;;;;;5052408;28;20025;-49
2021/08/11 01:57:49;;;;;;;13.00;7.03;;;14.10;92.80;;;;;;5052119;28;20029;-48
2021/08/11 02:00:16;;;;;;;10.98;7.55;;;14.00;92.80;;;;;;5052482;28;20044;-48
2021/08/11 02:02:44;;;;;;;9.98;7.28;;;14.10;93.00;;;;;;5052429;28;20025;-47
2021/08/11 02:05:11;;;;;;;13.73;8.35;;;14.10;93.00;;;;;;5052224;28;20460;-48
2021/08/11 02:07:38;;;;;;;11.05;6.65;;;14.10;93.00;;;;;;5052148;28;20043;-48
2021/08/11 02:10:06;;;;;;;12.52;7.00;;;14.10;92.90;;;;;;5052598;28;20524;-49
2021/08/11 02:12:32;;;;;;;11.20;6.47;;;14.10;92.80;;;;;;5052362;28;20017;-47
2021/08/11 02:14:58;;;;;;;11.60;6.70;;;14.00;92.80;;;;;;5052471;28;20048;-47
2021/08/11 02:17:23;;;;;;;10.45;6.72;;;13.90;92.80;;;;;;5052555;28;20053;-50
2021/08/11 02:19:49;;;;;;;8.18;6.05;;;13.90;92.60;;;;;;5052366;28;20029;-47
2021/08/11 02:22:15;;;;;;;19.15;6.70;;;13.80;92.70;;;;;;5052576;28;20067;-47
2021/08/11 02:24:41;;;;;;;8.05;6.18;;;13.90;92.80;;;;;;5052261;28;20033;-47
2021/08/11 02:27:16;;;;;;;9.00;6.53;;;13.90;92.70;;;;;;5052715;28;20029;-46
2021/08/11 02:29:48;;;;;;;9.38;5.97;;;13.90;92.60;;;;;;5052415;28;20013;-47
2021/08/11 02:32:24;;;;;;;8.70;6.85;;;14.00;92.60;;;;;;5051819;28;20053;-47
2021/08/11 02:35:14;;;;;;;9.88;7.00;;;14.00;92.60;;;;;;5052117;28;20334;-46
2021/08/11 02:38:11;;;;;;;7.47;5.78;;;14.20;92.50;;;;;;5051875;28;20098;-51
2021/08/11 02:40:41;;;;;;;9.27;6.35;;;14.30;92.00;;;;;;5052276;28;20481;-47
2021/08/11 02:43:06;;;;;;;10.20;6.15;;;14.30;91.60;;;;;;5052119;28;20052;-47
2021/08/11 02:45:33;;;;;;;6.82;5.80;;;14.40;91.30;;;;;;5052021;28;20144;-47
2021/08/11 02:48:00;;;;;;;13.55;6.57;;;14.40;91.20;;;;;;5052058;28;20457;-48
2021/08/11 02:50:27;;;;;;;7.90;6.40;;;14.50;90.90;;;;;;5051849;28;20059;-47
2021/08/11 02:52:54;;;;;;;14.55;8.73;;;14.50;90.90;;;;;;5051857;28;20052;-55
2021/08/11 02:55:21;;;;;;;12.90;7.88;;;14.60;90.90;;;;;;5052088;28;20035;-47
2021/08/11 02:57:49;;;;;;;11.52;7.50;;;14.70;91.00;;;;;;5051940;28;20041;-49
2021/08/11 03:00:14;;;;;;;12.93;7.35;;;14.80;90.70;;;;;;5051998;28;20107;-48
2021/08/11 03:02:40;;;;;;;21.92;9.80;;;14.80;90.30;;;;;;5052861;28;20028;-37
2021/08/11 03:05:07;;;;;;;20.23;11.32;;;14.70;90.70;;;;;;5052490;28;20365;-37
2021/08/11 03:07:34;;;;;;;17.98;9.18;;;14.70;91.10;;;;;;5051818;28;20419;-37
2021/08/11 03:09:59;;;;;;;19.25;9.57;;;14.80;91.10;;;;;;5052386;28;20052;-37
2021/08/11 03:12:25;;;;;;;18.58;11.38;;;14.70;91.30;;;;;;5055661;28;20036;-37
2021/08/11 03:14:52;;;;;;;30.70;13.13;;;14.80;91.50;;;;;;5055472;28;20032;-37
2021/08/11 03:17:17;;;;;;;30.83;16.20;;;14.80;91.60;;;;;;5055502;28;20059;-37
2021/08/11 03:19:43;;;;;;;45.90;19.23;;;14.80;92.20;;;;;;5055315;28;20396;-37
2021/08/11 03:22:10;;;;;;;41.13;17.45;;;14.90;92.70;;;;;;5055559;28;20059;-36
2021/08/11 03:24:37;;;;;;;105.68;21.70;;;14.90;93.10;;;;;;5055495;28;20029;-36
2021/08/11 03:27:03;;;;;;;57.03;22.50;;;15.00;93.30;;;;;;5055592;28;20033;-36
2021/08/11 03:29:29;;;;;;;38.05;20.15;;;15.00;93.20;;;;;;5055604;28;20025;-36
2021/08/11 03:31:55;;;;;;;53.85;19.02;;;15.00;93.40;;;;;;5055335;28;20072;-36
2021/08/11 03:34:20;;;;;;;41.30;18.52;;;14.90;93.50;;;;;;5055588;28;20406;-36
2021/08/11 03:36:46;;;;;;;39.17;19.42;;;14.90;93.60;;;;;;5055405;28;20061;-36
2021/08/11 03:39:12;;;;;;;50.58;22.50;;;14.90;93.80;;;;;;5055681;28;20063;-36
2021/08/11 03:41:37;;;;;;;46.05;20.60;;;15.00;94.00;;;;;;5055293;28;20037;-36
2021/08/11 03:44:03;;;;;;;60.90;25.10;;;15.30;93.10;;;;;;5055376;28;20028;-37
2021/08/11 03:46:30;;;;;;;49.47;22.48;;;15.20;92.90;;;;;;5054881;28;20099;-36
2021/08/11 03:48:56;;;;;;;61.13;25.33;;;15.30;93.20;;;;;;5055212;28;20020;-36
2021/08/11 03:51:22;;;;;;;69.15;26.15;;;15.30;93.20;;;;;;5055126;28;20017;-36
2021/08/11 03:53:47;;;;;;;74.97;28.60;;;15.30;93.10;;;;;;5055133;28;20037;-36
2021/08/11 03:56:14;;;;;;;121.55;32.92;;;15.30;93.30;;;;;;5053336;28;20025;-37
2021/08/11 03:58:39;;;;;;;271.05;43.13;;;15.50;93.60;;;;;;5055090;28;20461;-37
2021/08/11 04:01:05;;;;;;;130.05;38.92;;;15.80;93.70;;;;;;5054610;28;20029;-37
2021/08/11 04:03:31;;;;;;;104.97;30.17;;;15.70;93.40;;;;;;5054486;28;20126;-37
2021/08/11 04:05:57;;;;;;;343.90;46.35;;;15.60;93.50;;;;;;5054386;28;20064;-37
2021/08/11 04:08:22;;;;;;;192.00;38.72;;;15.60;93.80;;;;;;5054431;28;20155;-37
2021/08/11 04:10:48;;;;;;;249.00;37.35;;;15.60;93.90;;;;;;5054402;28;20024;-37
2021/08/11 04:13:15;;;;;;;332.15;48.55;;;15.70;93.70;;;;;;5054400;28;20091;-37
2021/08/11 04:15:47;;;;;;;227.05;41.08;;;15.80;93.50;;;;;;5054080;28;20029;-37
2021/08/11 04:18:13;;;;;;;156.15;37.92;;;15.80;93.30;;;;;;5054534;28;20029;-37
2021/08/11 04:20:39;;;;;;;187.85;40.55;;;15.60;93.50;;;;;;5054014;28;20033;-37
2021/08/11 04:23:06;;;;;;;197.00;44.88;;;15.70;93.70;;;;;;5054295;28;20052;-37
2021/08/11 04:25:36;;;;;;;266.17;44.40;;;15.80;93.70;;;;;;5054189;28;20051;-37
2021/08/11 04:28:05;;;;;;;287.30;46.35;;;15.80;93.70;;;;;;5053022;28;20024;-37
2021/08/11 04:30:31;;;;;;;349.83;51.97;;;15.90;93.40;;;;;;5054176;28;20183;-37
2021/08/11 04:32:56;;;;;;;402.13;52.03;;;15.90;93.40;;;;;;5053996;28;20085;-37
2021/08/11 04:35:22;;;;;;;258.05;46.58;;;15.90;93.30;;;;;;5054222;28;20025;-37
2021/08/11 04:37:47;;;;;;;128.85;40.83;;;16.00;93.20;;;;;;5054015;28;20100;-37
2021/08/11 04:40:14;;;;;;;161.32;41.40;;;15.80;93.10;;;;;;5053935;28;20512;-37
2021/08/11 04:42:39;;;;;;;112.18;38.65;;;15.80;93.50;;;;;;5054100;28;20033;-37
2021/08/11 04:45:06;;;;;;;101.05;33.92;;;15.90;93.70;;;;;;5053662;28;20477;-37
2021/08/11 04:47:31;;;;;;;99.40;35.45;;;15.80;93.70;;;;;;5054058;28;20345;-37
2021/08/11 04:49:57;;;;;;;110.95;37.42;;;15.80;93.80;;;;;;5054165;28;20025;-37
2021/08/11 04:52:23;;;;;;;100.28;36.03;;;15.90;93.90;;;;;;5053710;28;20045;-37
2021/08/11 04:54:48;;;;;;;94.78;38.15;;;16.10;93.80;;;;;;5053638;28;20025;-37
2021/08/11 04:57:14;;;;;;;101.82;36.53;;;16.00;93.40;;;;;;5053787;28;20105;-38
2021/08/11 04:59:39;;;;;;;101.35;36.35;;;16.10;93.60;;;;;;5053578;28;20056;-37
2021/08/11 05:02:05;;;;;;;96.25;38.17;;;16.30;92.80;;;;;;5053667;28;20083;-37
2021/08/11 05:04:31;;;;;;;90.78;36.97;;;16.30;92.60;;;;;;5053246;28;20099;-37
2021/08/11 05:06:57;;;;;;;90.93;38.00;;;16.30;92.90;;;;;;5053456;28;20404;-37
2021/08/11 05:09:23;;;;;;;81.78;35.88;;;16.30;92.80;;;;;;5053383;28;20035;-37
2021/08/11 05:11:48;;;;;;;96.30;36.97;;;16.30;92.80;;;;;;5051677;28;20021;-37
2021/08/11 05:14:14;;;;;;;101.80;39.08;;;16.30;92.60;;;;;;5053567;28;20021;-37
2021/08/11 05:16:39;;;;;;;96.75;39.85;;;16.30;92.70;;;;;;5053144;28;20326;-37
2021/08/11 05:19:05;;;;;;;96.30;36.65;;;16.30;92.90;;;;;;5053121;28;20464;-37
2021/08/11 05:21:32;;;;;;;92.82;36.97;;;16.30;92.90;;;;;;5052913;28;20147;-37
2021/08/11 05:23:58;;;;;;;78.72;33.75;;;16.30;92.70;;;;;;5052813;28;20036;-37
2021/08/11 05:26:24;;;;;;;71.63;32.13;;;16.40;92.80;;;;;;5052678;28;20025;-37
2021/08/11 05:28:50;;;;;;;78.95;33.28;;;16.50;92.50;;;;;;5051667;28;20021;-37
2021/08/11 05:31:15;;;;;;;76.38;35.35;;;16.60;92.00;;;;;;5052738;28;20029;-37
2021/08/11 05:33:41;;;;;;;82.70;36.10;;;16.70;92.00;;;;;;5051956;28;20107;-37
2021/08/11 05:36:07;;;;;;;84.93;34.58;;;17.00;91.20;;;;;;5052700;28;20048;-37
2021/08/11 05:38:34;;;;;;;85.38;37.00;;;17.10;89.70;;;;;;5052914;28;20385;-37
2021/08/11 05:41:00;;;;;;;79.22;35.58;;;17.00;90.20;;;;;;5052849;28;20025;-42
2021/08/11 05:43:26;;;;;;;73.53;32.97;;;16.80;90.60;;;;;;5052585;28;20029;-37
2021/08/11 05:45:51;;;;;;;68.20;33.22;;;16.80;90.70;;;;;;5052244;28;20090;-36
2021/08/11 05:48:19;;;;;;;65.80;32.20;;;16.80;91.40;;;;;;5051037;28;20024;-37
2021/08/11 05:50:44;;;;;;;55.30;28.60;;;16.90;91.10;;;;;;5052198;28;20040;-36
2021/08/11 05:53:10;;;;;;;54.83;30.52;;;17.00;90.70;;;;;;5052487;28;20028;-37
2021/08/11 05:55:36;;;;;;;50.47;26.40;;;17.00;89.80;;;;;;5052370;28;20392;-36
2021/08/11 05:58:02;;;;;;;60.95;29.42;;;16.90;90.00;;;;;;5052667;28;20031;-37
2021/08/11 06:00:28;;;;;;;64.15;32.80;;;16.60;91.20;;;;;;5052338;28;20449;-37
2021/08/11 06:02:56;;;;;;;57.88;30.02;;;16.60;91.40;;;;;;5052929;28;20174;-36
2021/08/11 06:05:22;;;;;;;62.00;33.17;;;16.50;92.00;;;;;;5052496;28;20174;-36
2021/08/11 06:07:48;;;;;;;63.75;32.92;;;16.60;92.10;;;;;;5051026;28;20041;-37
2021/08/11 06:10:14;;;;;;;72.13;33.72;;;16.80;91.70;;;;;;5050426;28;20020;-37
2021/08/11 06:12:39;;;;;;;65.60;31.60;;;16.90;90.80;;;;;;5051980;28;20020;-37
2021/08/11 06:15:05;;;;;;;63.13;30.52;;;17.10;90.50;;;;;;5052046;28;20064;-37
2021/08/11 06:17:31;;;;;;;67.00;33.45;;;17.10;89.80;;;;;;5052255;28;20052;-36
2021/08/11 06:19:57;;;;;;;87.50;36.53;;;17.20;90.10;;;;;;5051906;28;20103;-37
2021/08/11 06:22:23;;;;;;;78.57;34.47;;;16.90;90.50;;;;;;5052090;28;20376;-36
2021/08/11 06:24:48;;;;;;;75.78;34.63;;;16.80;91.00;;;;;;5052163;28;20029;-37
2021/08/11 06:27:14;;;;;;;84.93;36.40;;;16.70;91.20;;;;;;5052985;28;20025;-37
2021/08/11 06:29:40;;;;;;;75.40;34.63;;;16.80;91.70;;;;;;5052235;28;20053;-36
2021/08/11 06:32:06;;;;;;;62.08;28.38;;;16.80;92.10;;;;;;5052073;28;20564;-38
2021/08/11 06:34:31;;;;;;;74.82;32.63;;;16.80;90.90;;;;;;5051946;28;20025;-36
2021/08/11 06:36:58;;;;;;;81.88;34.50;;;16.80;91.30;;;;;;5051111;28;20021;-37
2021/08/11 06:39:26;;;;;;;89.00;37.08;;;16.80;91.40;;;;;;5052939;28;20519;-37
2021/08/11 06:41:52;;;;;;;72.05;35.67;;;16.40;92.60;;;;;;5051842;28;20022;-37
2021/08/11 06:44:18;;;;;;;69.15;33.38;;;16.30;93.00;;;;;;5052477;28;20088;-37
2021/08/11 06:46:43;;;;;;;75.57;33.03;;;16.20;93.30;;;;;;5055941;28;20032;-37
2021/08/11 06:49:09;;;;;;;78.35;35.47;;;16.40;93.10;;;;;;5055886;28;20028;-37
2021/08/11 06:51:35;;;;;;;68.50;35.63;;;16.80;92.20;;;;;;5055482;28;20088;-38
2021/08/11 06:54:00;;;;;;;66.97;34.13;;;16.80;92.00;;;;;;5054426;28;20120;-37
2021/08/11 06:56:26;;;;;;;69.53;36.85;;;16.80;91.80;;;;;;5055732;28;20648;-38
2021/08/11 06:58:52;;;;;;;70.20;35.08;;;17.10;91.40;;;;;;5056032;28;20033;-37
2021/08/11 07:01:17;;;;;;;69.93;36.38;;;17.30;90.00;;;;;;5054047;28;20021;-37
2021/08/11 07:03:43;;;;;;;62.95;33.40;;;17.60;89.60;;;;;;5055545;28;20055;-37
2021/08/11 07:06:12;;;;;;;65.82;34.53;;;17.60;89.00;;;;;;5055247;28;20025;-37
2021/08/11 07:08:37;;;;;;;67.60;35.10;;;17.60;89.10;;;;;;5054038;28;20021;-37
2021/08/11 07:11:03;;;;;;;68.18;32.72;;;17.70;88.90;;;;;;5055212;28;20412;-37
2021/08/11 07:13:28;;;;;;;66.35;33.78;;;17.90;87.80;;;;;;5055261;28;20104;-37
2021/08/11 07:15:54;;;;;;;62.72;31.92;;;17.80;87.90;;;;;;5055332;28;20112;-36
2021/08/11 07:18:20;;;;;;;62.13;32.20;;;17.90;87.40;;;;;;5055606;28;20328;-37
2021/08/11 07:20:46;;;;;;;60.50;34.35;;;17.80;87.30;;;;;;5054081;28;20051;-36
2021/08/11 07:23:12;;;;;;;64.20;34.15;;;17.80;87.70;;;;;;5055570;28;20082;-37
2021/08/11 07:25:38;;;;;;;59.30;32.45;;;18.10;86.70;;;;;;5055657;28;20445;-37
2021/08/11 07:28:04;;;;;;;50.25;29.45;;;18.20;86.70;;;;;;5055457;28;20061;-37
2021/08/11 07:30:30;;;;;;;55.05;27.42;;;18.30;86.40;;;;;;5055727;28;20322;-37
2021/08/11 07:32:55;;;;;;;49.97;29.40;;;18.30;86.00;;;;;;5054942;28;20099;-38
2021/08/11 07:35:21;;;;;;;48.40;27.70;;;18.30;85.90;;;;;;5055729;28;20086;-37
2021/08/11 07:37:56;;;;;;;42.42;25.83;;;18.30;86.50;;;;;;5055218;28;20033;-37
2021/08/11 07:40:25;;;;;;;53.38;27.35;;;18.40;85.30;;;;;;5055822;28;20021;-37
2021/08/11 07:42:51;;;;;;;51.75;28.38;;;18.40;85.40;;;;;;5055129;28;20478;-37
2021/08/11 07:45:19;;;;;;;53.97;28.10;;;18.40;85.00;;;;;;5053391;28;20483;-37
2021/08/11 07:47:51;;;;;;;52.30;29.20;;;18.10;86.50;;;;;;5055085;28;20032;-36
2021/08/11 07:50:18;;;;;;;45.83;27.40;;;18.10;87.60;;;;;;5054387;28;20109;-36
2021/08/11 07:52:44;;;;;;;47.47;26.17;;;18.20;87.00;;;;;;5054516;28;20385;-36
2021/08/11 07:55:11;;;;;;;51.53;29.45;;;18.00;86.80;;;;;;5054510;28;20446;-36
2021/08/11 07:57:37;;;;;;;47.70;28.60;;;18.10;86.70;;;;;;5054534;28;20027;-37
2021/08/11 08:00:05;;;;;;;49.00;27.63;;;18.00;86.70;;;;;;5054653;28;20376;-38
2021/08/11 08:02:31;;;;;;;47.65;29.00;;;18.10;87.00;;;;;;5054582;28;20396;-38
2021/08/11 08:04:56;;;;;;;49.25;28.73;;;18.00;87.40;;;;;;5054390;28;20029;-37
2021/08/11 08:07:22;;;;;;;49.40;31.20;;;18.20;86.60;;;;;;5054426;28;20053;-38
2021/08/11 08:09:47;;;;;;;50.65;29.25;;;18.20;86.10;;;;;;5055321;28;20032;-36
2021/08/11 08:12:13;;;;;;;49.03;30.27;;;18.30;87.10;;;;;;5054867;28;20060;-37
2021/08/11 08:14:39;;;;;;;50.50;29.23;;;18.30;86.10;;;;;;5054681;28;20017;-37
2021/08/11 08:17:04;;;;;;;48.38;28.98;;;18.60;86.20;;;;;;5054353;28;20020;-37
2021/08/11 08:19:30;;;;;;;46.88;27.25;;;18.90;84.70;;;;;;5053864;28;20051;-38
2021/08/11 08:21:55;;;;;;;49.05;30.70;;;19.30;82.30;;;;;;5052608;28;20021;-38
2021/08/11 08:24:22;;;;;;;52.55;32.85;;;19.30;81.50;;;;;;5053700;28;20021;-39
2021/08/11 08:26:48;;;;;;;47.03;30.20;;;18.70;83.80;;;;;;5053899;28;20111;-38
2021/08/11 08:29:13;;;;;;;45.15;30.15;;;18.80;83.60;;;;;;5054549;28;20029;-38
2021/08/11 08:31:39;;;;;;;47.17;29.45;;;18.80;84.20;;;;;;5054197;28;20028;-38
2021/08/11 08:34:05;;;;;;;46.47;29.15;;;18.90;83.50;;;;;;5054179;28;20472;-38
2021/08/11 08:36:31;;;;;;;46.65;32.42;;;19.10;82.60;;;;;;5054367;28;20092;-38
2021/08/11 08:38:57;;;;;;;48.88;31.42;;;19.30;82.20;;;;;;5053877;28;20021;-38
2021/08/11 08:41:23;;;;;;;41.95;28.05;;;19.20;81.90;;;;;;5053865;28;20068;-38
2021/08/11 08:43:49;;;;;;;41.92;29.20;;;19.50;81.10;;;;;;5054053;28;20365;-38
2021/08/11 08:46:16;;;;;;;41.53;28.92;;;19.70;80.20;;;;;;5053480;28;20122;-38
2021/08/11 08:48:42;;;;;;;39.80;28.10;;;20.10;79.10;;;;;;5054974;28;20054;-40
2021/08/11 08:51:12;;;;;;;37.08;25.10;;;20.70;77.20;;;;;;5054148;28;20051;-37
2021/08/11 08:53:44;;;;;;;38.33;26.63;;;21.50;74.50;;;;;;5053956;28;20044;-38
2021/08/11 08:56:10;;;;;;;37.03;27.60;;;21.80;72.30;;;;;;5053912;28;20508;-38
2021/08/11 08:58:37;;;;;;;33.13;24.88;;;20.80;74.60;;;;;;5053542;28;20104;-39
2021/08/11 09:01:03;;;;;;;37.60;28.10;;;20.80;74.00;;;;;;5053292;28;20124;-37
2021/08/11 09:03:29;;;;;;;39.55;28.02;;;20.80;74.40;;;;;;5054116;28;20088;-38
2021/08/11 09:05:54;;;;;;;34.58;26.70;;;21.10;74.30;;;;;;5053431;28;20021;-38
2021/08/11 09:08:20;;;;;;;37.50;26.13;;;21.50;72.60;;;;;;5052331;28;20413;-38
2021/08/11 09:10:46;;;;;;;33.40;24.13;;;22.10;71.30;;;;;;5053168;28;20073;-38
2021/08/11 09:13:20;;;;;;;25.75;21.60;;;22.00;70.90;;;;;;5053536;28;20028;-38
2021/08/11 09:15:48;;;;;;;29.13;22.70;;;22.50;68.80;;;;;;5053276;28;20028;-38
2021/08/11 09:18:16;;;;;;;28.40;22.88;;;23.00;66.60;;;;;;5053308;28;20033;-38
2021/08/11 09:20:48;;;;;;;28.33;21.25;;;23.20;66.40;;;;;;5052818;28;20032;-37
2021/08/11 09:23:31;;;;;;;26.80;20.75;;;23.00;66.10;;;;;;5052644;28;20188;-37
2021/08/11 09:26:02;;;;;;;29.45;22.02;;;22.60;67.80;;;;;;5052907;28;20206;-37
2021/08/11 09:28:30;;;;;;;29.83;23.35;;;22.80;67.00;;;;;;5052723;28;20051;-37
2021/08/11 09:30:56;;;;;;;25.77;20.10;;;23.20;65.80;;;;;;5052675;28;20044;-38
2021/08/11 09:33:26;;;;;;;23.90;19.63;;;23.80;63.50;;;;;;5052764;28;20045;-38
2021/08/11 09:35:53;;;;;;;23.73;19.08;;;24.40;61.40;;;;;;5052896;28;20381;-38
2021/08/11 09:38:19;;;;;;;24.38;20.10;;;23.30;64.10;;;;;;5052865;28;20115;-37
2021/08/11 09:40:46;;;;;;;25.27;19.48;;;21.90;69.30;;;;;;5053050;28;20121;-39
2021/08/11 09:43:18;;;;;;;22.88;17.67;;;22.20;68.50;;;;;;5052331;28;20495;-37
2021/08/11 09:45:48;;;;;;;20.95;16.58;;;23.30;64.60;;;;;;5053020;28;20052;-38
2021/08/11 09:48:16;;;;;;;22.30;16.48;;;24.40;61.20;;;;;;5052898;28;20346;-36
2021/08/11 09:50:48;;;;;;;16.48;14.57;;;25.20;59.10;;;;;;5052878;28;20100;-37
2021/08/11 09:53:17;;;;;;;18.08;14.05;;;26.20;55.40;;;;;;5052774;28;20025;-38
2021/08/11 09:56:07;;;;;;;19.83;15.00;;;26.50;53.30;;;;;;5051352;28;20029;-38
2021/08/11 09:58:36;;;;;;;18.90;15.90;;;25.50;55.90;;;;;;5051516;28;20032;-37
2021/08/11 10:01:02;;;;;;;18.88;15.32;;;24.30;59.60;;;;;;5052070;28;20408;-37
2021/08/11 10:03:28;;;;;;;14.48;12.30;;;23.60;61.60;;;;;;5051665;28;20032;-37
2021/08/11 10:05:54;;;;;;;18.52;13.63;;;23.50;61.90;;;;;;5051928;28;20029;-38
2021/08/11 10:08:33;;;;;;;15.93;12.25;;;23.40;61.50;;;;;;5050015;28;20021;-37
2021/08/11 10:11:01;;;;;;;19.83;12.88;;;23.30;62.50;;;;;;5052076;28;20043;-37
2021/08/11 10:13:30;;;;;;;15.80;11.65;;;22.80;64.20;;;;;;5051796;28;20495;-37
2021/08/11 10:15:56;;;;;;;13.77;11.40;;;22.20;64.50;;;;;;5052337;28;20043;-37
2021/08/11 10:18:27;;;;;;;13.93;11.43;;;22.60;64.60;;;;;;5051738;28;20100;-37
2021/08/11 10:20:59;;;;;;;13.98;11.07;;;23.00;62.70;;;;;;5050221;28;20032;-38
2021/08/11 10:23:25;;;;;;;12.65;10.82;;;23.30;62.30;;;;;;5049964;28;20036;-36
2021/08/11 10:25:51;;;;;;;15.80;10.98;;;23.60;61.10;;;;;;5049119;28;20025;-38
2021/08/11 10:28:19;;;;;;;13.65;11.10;;;23.90;60.10;;;;;;5050974;28;20025;-37
2021/08/11 10:30:47;;;;;;;12.65;10.48;;;24.80;57.60;;;;;;5051452;28;20021;-37
2021/08/11 10:33:16;;;;;;;12.63;10.15;;;25.70;54.90;;;;;;5050766;28;20053;-37
2021/08/11 10:35:46;;;;;;;15.07;9.85;;;26.80;51.90;;;;;;5050130;28;20025;-38
2021/08/11 10:38:14;;;;;;;14.52;10.90;;;26.80;51.90;;;;;;5049803;28;20033;-38
2021/08/11 10:40:50;;;;;;;12.88;10.00;;;26.70;51.90;;;;;;5051603;28;20025;-37
2021/08/11 10:43:16;;;;;;;13.70;9.70;;;27.10;49.90;;;;;;5051635;28;20029;-37
2021/08/11 10:45:44;;;;;;;12.43;9.82;;;25.80;53.20;;;;;;5051287;28;20048;-37
2021/08/11 10:48:17;;;;;;;14.52;11.15;;;25.40;54.40;;;;;;5051471;28;20111;-36
2021/08/11 10:50:45;;;;;;;12.93;9.50;;;24.90;55.90;;;;;;5052215;28;20089;-36
2021/08/11 10:53:11;;;;;;;11.98;10.68;;;25.20;54.90;;;;;;5051500;28;20025;-38
2021/08/11 10:55:46;;;;;;;13.60;10.35;;;24.90;55.40;;;;;;5033493;28;20346;-38
2021/08/11 10:58:40;;;;;;;11.75;10.52;;;24.70;56.50;;;;;;5050095;28;20025;-38
2021/08/11 11:01:30;;;;;;;10.15;8.02;;;26.30;52.00;;;;;;5050898;28;20086;-38
2021/08/11 11:03:56;;;;;;;10.80;8.50;;;25.10;54.70;;;;;;5051089;28;20021;-36
2021/08/11 11:06:22;;;;;;;11.85;8.43;;;24.80;55.50;;;;;;5033244;28;20112;-37
2021/08/11 11:08:48;;;;;;;9.38;7.25;;;24.80;54.50;;;;;;5051996;28;20036;-37
2021/08/11 11:11:29;;;;;;;11.55;7.00;;;26.00;51.90;;;;;;5050674;28;20048;-38
2021/08/11 11:13:55;;;;;;;8.40;6.97;;;25.50;52.50;;;;;;5051349;28;20419;-38
2021/08/11 11:16:21;;;;;;;8.05;6.20;;;26.10;50.10;;;;;;5051561;28;20036;-37
2021/08/11 11:19:08;;;;;;;7.07;5.10;;;26.80;48.50;;;;;;5049905;28;20424;-37
2021/08/11 11:21:34;;;;;;;6.75;5.78;;;26.80;48.40;;;;;;5051071;28;20071;-38
2021/08/11 11:24:00;;;;;;;5.45;4.95;;;27.00;47.30;;;;;;5053580;28;20052;-37
2021/08/11 11:26:35;;;;;;;5.35;4.85;;;27.50;46.10;;;;;;5049944;28;20085;-38
2021/08/11 11:29:08;;;;;;;8.15;4.95;;;28.80;42.70;;;;;;5051607;28;20021;-37
2021/08/11 11:31:34;;;;;;;5.95;4.63;;;27.10;45.50;;;;;;5052783;28;20452;-37
2021/08/11 11:34:26;;;;;;;6.80;5.35;;;25.20;48.90;;;;;;5055390;28;20078;-38
2021/08/11 11:36:55;;;;;;;8.60;5.30;;;24.30;51.70;;;;;;5055015;28;20402;-37
2021/08/11 11:39:25;;;;;;;6.80;5.03;;;24.00;52.60;;;;;;5055271;28;20523;-38
2021/08/11 11:42:12;;;;;;;6.35;4.80;;;23.90;52.10;;;;;;5055709;28;20079;-38
2021/08/11 11:44:49;;;;;;;6.38;4.28;;;25.80;47.30;;;;;;5054687;28;20094;-38
2021/08/11 11:47:39;;;;;;;5.90;5.03;;;26.70;45.60;;;;;;5054799;28;20029;-38
2021/08/11 11:50:20;;;;;;;9.18;5.88;;;25.90;47.30;;;;;;5053293;28;20048;-37
2021/08/11 11:52:56;;;;;;;5.50;4.65;;;24.90;49.20;;;;;;5054472;28;20048;-38
2021/08/11 11:55:31;;;;;;;6.30;4.63;;;24.30;50.60;;;;;;5056233;28;20028;-36
2021/08/11 11:58:01;;;;;;;8.10;5.03;;;25.60;48.40;;;;;;5055009;28;20036;-37
2021/08/11 12:00:27;;;;;;;7.47;4.80;;;25.40;49.30;;;;;;5054305;28;20335;-37
2021/08/11 12:02:54;;;;;;;6.63;4.47;;;26.30;47.00;;;;;;5053998;28;20033;-37
2021/08/11 12:05:20;;;;;;;6.30;5.70;;;26.50;46.60;;;;;;5054182;28;20043;-37
2021/08/11 12:07:46;;;;;;;6.25;4.68;;;27.70;44.30;;;;;;5054697;28;20021;-38
2021/08/11 12:10:25;;;;;;;7.00;5.20;;;28.50;41.00;;;;;;5054351;28;20437;-37
2021/08/11 12:13:02;;;;;;;6.00;5.25;;;28.30;41.30;;;;;;5055033;28;20021;-38
2021/08/11 12:15:33;;;;;;;6.43;4.97;;;29.00;40.70;;;;;;5052661;28;20055;-38
2021/08/11 12:18:00;;;;;;;8.15;4.82;;;29.00;41.00;;;;;;5054240;28;20033;-37
2021/08/11 12:20:34;;;;;;;6.95;5.20;;;29.00;39.50;;;;;;5054418;28;20025;-37
2021/08/11 12:23:17;;;;;;;6.88;5.05;;;28.60;40.30;;;;;;5054214;28;20025;-37
2021/08/11 12:25:43;;;;;;;8.10;5.35;;;28.30;40.80;;;;;;5054655;28;20024;-42
2021/08/11 12:28:10;;;;;;;6.32;5.53;;;27.40;43.00;;;;;;5053929;28;20363;-37
2021/08/11 12:30:50;;;;;;;7.57;5.13;;;28.20;41.20;;;;;;5054334;28;20373;-36
2021/08/11 12:36:00;;;;;;;6.82;6.13;;;27.80;41.80;;;;;;5089933;27;20393;-37
2021/08/11 12:38:29;;;;;;;7.32;6.32;;;27.30;43.70;;;;;;5088513;28;20038;-38
2021/08/11 12:40:56;;;;;;;5.93;5.32;;;26.70;45.30;;;;;;5089812;28;20353;-36